createdAt,value
2019-04-01T00:02:04.270Z,9.26
2019-04-01T00:04:30.865Z,9.23
2019-04-01T00:06:57.559Z,9.20
2019-04-01T00:09:24.151Z,9.19
2019-04-01T00:11:50.781Z,9.20
2019-04-01T00:14:17.389Z,9.20
2019-04-01T00:16:44.005Z,9.20
2019-04-01T00:19:10.609Z,9.20
2019-04-01T00:21:37.212Z,9.21
2019-04-01T00:24:03.817Z,9.22
2019-04-01T00:26:30.412Z,9.20
2019-04-01T00:28:57.015Z,9.19
2019-04-01T00:31:23.649Z,9.17
2019-04-01T00:33:50.236Z,9.14
2019-04-01T00:36:16.833Z,9.13
2019-04-01T00:38:43.613Z,9.11
2019-04-01T00:41:10.206Z,9.09
2019-04-01T00:43:56.278Z,9.03
2019-04-01T00:46:22.981Z,9.00
2019-04-01T00:48:49.770Z,8.97
2019-04-01T00:51:16.367Z,8.93
2019-04-01T00:53:42.984Z,8.90
2019-04-01T00:56:09.597Z,8.86
2019-04-01T00:58:36.210Z,8.83
2019-04-01T01:01:02.808Z,8.79
2019-04-01T01:03:29.433Z,8.75
2019-04-01T01:05:56.139Z,8.73
2019-04-01T01:08:22.760Z,8.68
2019-04-01T01:10:49.377Z,8.65
2019-04-01T01:13:15.982Z,8.61
2019-04-01T01:15:42.600Z,8.58
2019-04-01T01:18:09.190Z,8.59
2019-04-01T01:20:35.796Z,8.59
2019-04-01T01:23:02.408Z,8.58
2019-04-01T01:25:29.001Z,8.57
2019-04-01T01:27:55.694Z,8.57
2019-04-01T01:30:22.371Z,8.58
2019-04-01T01:32:49.054Z,8.60
2019-04-01T01:35:15.711Z,8.60
2019-04-01T01:37:42.394Z,8.61
2019-04-01T01:40:09.775Z,8.60
2019-04-01T01:42:36.478Z,8.57
2019-04-01T01:45:03.124Z,8.55
2019-04-01T01:47:29.820Z,8.54
2019-04-01T01:49:56.497Z,8.51
2019-04-01T01:52:23.100Z,8.49
2019-04-01T01:54:49.699Z,8.46
2019-04-01T01:57:16.289Z,8.44
2019-04-01T01:59:42.879Z,8.41
2019-04-01T02:02:09.498Z,8.39
2019-04-01T02:04:36.472Z,8.36
2019-04-01T02:07:03.095Z,8.33
2019-04-01T02:09:29.683Z,8.31
2019-04-01T02:11:56.315Z,8.29
2019-04-01T02:14:22.955Z,8.26
2019-04-01T02:16:49.543Z,8.24
2019-04-01T02:19:16.178Z,8.21
2019-04-01T02:21:42.871Z,8.18
2019-04-01T02:24:09.489Z,8.15
2019-04-01T02:26:36.080Z,8.14
2019-04-01T02:29:02.687Z,8.09
2019-04-01T02:31:29.288Z,8.07
2019-04-01T02:33:55.894Z,8.05
2019-04-01T02:36:22.513Z,8.02
2019-04-01T02:38:49.206Z,8.00
2019-04-01T02:41:15.812Z,7.97
2019-04-01T02:43:42.487Z,7.94
2019-04-01T02:46:09.118Z,7.91
2019-04-01T02:48:35.928Z,7.86
2019-04-01T02:51:02.613Z,7.82
2019-04-01T02:53:29.243Z,7.78
2019-04-01T02:55:55.941Z,7.75
2019-04-01T02:58:22.640Z,7.71
2019-04-01T03:00:49.244Z,7.68
2019-04-01T03:03:15.930Z,7.65
2019-04-01T03:05:42.660Z,7.60
2019-04-01T03:08:09.249Z,7.59
2019-04-01T03:10:35.872Z,7.56
2019-04-01T03:13:02.465Z,7.53
2019-04-01T03:15:29.098Z,7.51
2019-04-01T03:17:55.692Z,7.48
2019-04-01T03:20:22.301Z,7.44
2019-04-01T03:22:49.001Z,7.41
2019-04-01T03:25:35.088Z,7.38
2019-04-01T03:28:01.683Z,7.35
2019-04-01T03:30:28.275Z,7.33
2019-04-01T03:32:54.984Z,7.29
2019-04-01T03:35:21.686Z,7.28
2019-04-01T03:37:48.388Z,7.26
2019-04-01T03:40:16.973Z,7.24
2019-04-01T03:42:43.577Z,7.22
2019-04-01T03:45:10.211Z,7.19
2019-04-01T03:47:36.828Z,7.17
2019-04-01T03:50:03.468Z,7.15
2019-04-01T03:52:30.156Z,7.14
2019-04-01T03:54:56.861Z,7.11
2019-04-01T03:57:23.547Z,7.10
2019-04-01T03:59:50.149Z,7.08
2019-04-01T04:02:16.775Z,7.05
2019-04-01T04:04:43.378Z,7.03
2019-04-01T04:07:10.113Z,6.99
2019-04-01T04:09:36.798Z,6.98
2019-04-01T04:12:03.426Z,6.98
2019-04-01T04:14:30.200Z,6.97
2019-04-01T04:16:56.839Z,6.94
2019-04-01T04:19:23.437Z,6.91
2019-04-01T04:21:50.037Z,6.91
2019-04-01T04:24:16.648Z,6.89
2019-04-01T04:26:43.250Z,6.87
2019-04-01T04:29:09.954Z,6.86
2019-04-01T04:31:36.560Z,6.83
2019-04-01T04:34:03.260Z,6.82
2019-04-01T04:36:29.857Z,6.78
2019-04-01T04:38:56.609Z,6.77
2019-04-01T04:41:23.298Z,6.77
2019-04-01T04:43:49.968Z,6.77
2019-04-01T04:46:16.574Z,6.77
2019-04-01T04:48:43.170Z,6.76
2019-04-01T04:51:09.757Z,6.73
2019-04-01T04:53:36.354Z,6.71
2019-04-01T04:56:03.045Z,6.70
2019-04-01T04:58:29.647Z,6.68
2019-04-01T05:00:56.233Z,6.68
2019-04-01T05:03:22.850Z,6.67
2019-04-01T05:05:49.533Z,6.67
2019-04-01T05:08:16.237Z,6.79
2019-04-01T05:10:42.919Z,7.41
2019-04-01T05:13:09.630Z,7.83
2019-04-01T05:15:36.211Z,8.15
2019-04-01T05:18:02.808Z,8.45
2019-04-01T05:20:29.622Z,8.79
2019-04-01T05:22:56.215Z,9.01
2019-04-01T05:25:22.784Z,9.17
2019-04-01T05:27:49.412Z,9.25
2019-04-01T05:30:16.093Z,9.28
2019-04-01T05:32:42.714Z,9.31
2019-04-01T05:35:09.398Z,9.32
2019-04-01T05:37:36.016Z,9.30
2019-04-01T05:40:02.976Z,9.38
2019-04-01T05:42:29.598Z,9.46
2019-04-01T05:44:56.198Z,9.35
2019-04-01T05:50:06.159Z,9.22
2019-04-01T05:52:32.868Z,9.12
2019-04-01T05:54:59.464Z,9.18
2019-04-01T05:57:26.070Z,9.32
2019-04-01T05:59:52.721Z,9.44
2019-04-01T06:02:19.367Z,9.60
2019-04-01T06:04:45.959Z,9.90
2019-04-01T06:07:12.547Z,10.08
2019-04-01T06:09:39.174Z,10.32
2019-04-01T06:12:05.778Z,10.55
2019-04-01T06:14:32.390Z,10.78
2019-04-01T06:16:59.003Z,10.80
2019-04-01T06:19:25.695Z,10.74
2019-04-01T06:21:52.390Z,10.71
2019-04-01T06:24:19.012Z,10.60
2019-04-01T06:26:45.717Z,10.47
2019-04-01T06:29:12.323Z,10.44
2019-04-01T06:31:38.971Z,10.40
2019-04-01T06:34:05.657Z,10.38
2019-04-01T06:36:32.268Z,10.29
2019-04-01T06:38:58.871Z,10.16
2019-04-01T06:41:25.475Z,10.05
2019-04-01T06:43:52.082Z,9.95
2019-04-01T06:46:18.770Z,9.98
2019-04-01T06:48:45.373Z,10.00
2019-04-01T06:51:11.995Z,10.02
2019-04-01T06:53:38.598Z,10.02
2019-04-01T06:56:05.573Z,9.95
2019-04-01T06:58:32.187Z,10.04
2019-04-01T07:00:58.924Z,10.17
2019-04-01T07:03:25.529Z,10.31
2019-04-01T07:05:52.194Z,10.47
2019-04-01T07:08:18.900Z,10.46
2019-04-01T07:10:45.495Z,10.40
2019-04-01T07:13:12.097Z,10.16
2019-04-01T07:15:38.814Z,9.95
2019-04-01T07:18:05.509Z,9.73
2019-04-01T07:20:32.118Z,9.71
2019-04-01T07:22:58.834Z,9.70
2019-04-01T07:25:25.520Z,9.69
2019-04-01T07:27:52.252Z,9.75
2019-04-01T07:30:18.846Z,9.87
2019-04-01T07:32:45.498Z,9.96
2019-04-01T07:35:12.184Z,10.04
2019-04-01T07:37:39.046Z,10.28
2019-04-01T07:40:05.723Z,10.53
2019-04-01T07:42:32.382Z,10.74
2019-04-01T07:44:59.037Z,10.85
2019-04-01T07:47:25.634Z,10.80
2019-04-01T07:49:52.270Z,10.67
2019-04-01T07:52:18.872Z,10.56
2019-04-01T07:54:45.497Z,10.54
2019-04-01T07:57:12.221Z,10.56
2019-04-01T07:59:38.923Z,10.61
2019-04-01T08:02:05.654Z,10.90
2019-04-01T08:04:32.383Z,11.10
2019-04-01T08:06:58.994Z,11.17
2019-04-01T08:09:25.627Z,11.23
2019-04-01T08:11:52.243Z,11.31
2019-04-01T08:14:18.946Z,11.39
2019-04-01T08:16:45.560Z,11.40
2019-04-01T08:19:12.160Z,11.33
2019-04-01T08:21:39.117Z,11.29
2019-04-01T08:24:05.823Z,11.26
2019-04-01T08:26:32.443Z,11.27
2019-04-01T08:28:59.066Z,11.28
2019-04-01T08:31:25.706Z,11.34
2019-04-01T08:36:31.053Z,11.49
2019-04-01T08:38:57.670Z,11.52
2019-04-01T08:41:24.402Z,11.50
2019-04-01T08:43:51.121Z,11.55
2019-04-01T08:46:17.843Z,11.68
2019-04-01T08:48:44.590Z,11.86
2019-04-01T08:51:11.211Z,11.96
2019-04-01T08:53:37.919Z,12.03
2019-04-01T08:56:04.555Z,12.10
2019-04-01T08:58:31.144Z,12.20
2019-04-01T09:00:57.823Z,12.31
2019-04-01T09:03:24.526Z,12.34
2019-04-01T09:05:51.195Z,12.43
2019-04-01T09:08:17.895Z,12.45
2019-04-01T09:10:44.603Z,12.51
2019-04-01T09:13:11.223Z,12.59
2019-04-01T09:15:37.954Z,12.61
2019-04-01T09:18:04.605Z,12.65
2019-04-01T09:20:31.285Z,12.58
2019-04-01T09:22:59.403Z,12.64
2019-04-01T09:25:36.515Z,12.85
2019-04-01T09:28:03.229Z,12.98
2019-04-01T09:30:29.862Z,13.07
2019-04-01T09:32:56.589Z,13.16
2019-04-01T09:35:23.298Z,13.16
2019-04-01T09:37:49.996Z,13.20
2019-04-01T09:40:36.073Z,13.16
2019-04-01T09:43:02.690Z,13.13
2019-04-01T09:45:29.387Z,13.20
2019-04-01T09:47:55.986Z,13.32
2019-04-01T09:50:22.594Z,13.37
2019-04-01T09:52:49.195Z,13.43
2019-04-01T09:55:35.309Z,13.57
2019-04-01T09:58:02.020Z,13.62
2019-04-01T10:00:28.736Z,13.72
2019-04-01T10:02:55.386Z,13.79
2019-04-01T10:05:21.995Z,13.96
2019-04-01T10:07:48.687Z,14.09
2019-04-01T10:10:28.670Z,14.14
2019-04-01T10:12:55.296Z,14.30
2019-04-01T10:15:21.920Z,14.33
2019-04-01T10:17:48.558Z,14.48
2019-04-01T10:20:15.270Z,14.56
2019-04-01T10:22:41.954Z,14.72
2019-04-01T10:25:08.581Z,14.90
2019-04-01T10:27:35.306Z,15.01
2019-04-01T10:30:02.043Z,15.15
2019-04-01T10:32:28.757Z,15.23
2019-04-01T10:34:55.503Z,15.40
2019-04-01T10:37:22.116Z,15.58
2019-04-01T10:39:48.828Z,15.65
2019-04-01T10:42:15.555Z,16.02
2019-04-01T10:44:42.272Z,16.18
2019-04-01T10:47:09.036Z,16.33
2019-04-01T10:49:35.800Z,16.53
2019-04-01T10:52:02.554Z,16.77
2019-04-01T10:54:29.277Z,16.98
2019-04-01T10:56:55.985Z,17.12
2019-04-01T10:59:22.702Z,17.18
2019-04-01T11:01:49.434Z,17.09
2019-04-01T11:04:16.210Z,17.20
2019-04-01T11:06:42.919Z,17.31
2019-04-01T11:12:04.293Z,17.55
2019-04-01T11:14:31.043Z,17.77
2019-04-01T11:16:57.717Z,18.03
2019-04-01T11:19:24.425Z,18.07
2019-04-01T11:21:51.021Z,18.22
2019-04-01T11:24:17.718Z,18.24
2019-04-01T11:26:44.313Z,18.55
2019-04-01T11:29:10.935Z,18.51
2019-04-01T11:31:37.709Z,18.53
2019-04-01T11:34:04.379Z,18.82
2019-04-01T11:36:31.147Z,19.11
2019-04-01T11:38:57.853Z,19.31
2019-04-01T11:41:24.549Z,19.44
2019-04-01T11:43:52.531Z,19.25
2019-04-01T11:46:26.387Z,19.43
2019-04-01T11:48:53.192Z,19.53
2019-04-01T11:51:32.055Z,19.42
2019-04-01T11:53:54.990Z,19.41
2019-04-01T11:56:21.613Z,19.49
2019-04-01T11:58:48.240Z,19.89
2019-04-01T12:01:14.926Z,20.12
2019-04-01T12:03:41.547Z,20.24
2019-04-01T12:06:08.150Z,20.23
2019-04-01T12:08:34.862Z,20.56
2019-04-01T12:11:01.581Z,20.69
2019-04-01T12:13:29.025Z,20.87
2019-04-01T12:16:03.196Z,20.82
2019-04-01T12:18:29.933Z,20.66
2019-04-01T12:20:56.524Z,20.70
2019-04-01T12:23:23.106Z,20.79
2019-04-01T12:25:49.711Z,20.77
2019-04-01T12:28:16.398Z,20.65
2019-04-01T12:30:42.996Z,20.54
2019-04-01T12:33:09.604Z,20.66
2019-04-01T12:35:36.292Z,20.61
2019-04-01T12:38:02.954Z,20.97
2019-04-01T12:40:29.680Z,21.01
2019-04-01T12:42:56.290Z,21.04
2019-04-01T12:45:22.970Z,20.90
2019-04-01T12:47:49.661Z,20.83
2019-04-01T12:50:16.276Z,20.74
2019-04-01T12:52:42.985Z,20.82
2019-04-01T12:55:10.446Z,20.76
2019-04-01T12:57:37.130Z,20.70
2019-04-01T13:02:42.717Z,20.99
2019-04-01T13:05:09.430Z,21.30
2019-04-01T13:07:36.131Z,21.45
2019-04-01T13:10:03.241Z,21.67
2019-04-01T13:12:29.852Z,21.79
2019-04-01T13:14:56.598Z,21.98
2019-04-01T13:17:23.270Z,22.14
2019-04-01T13:19:49.989Z,22.19
2019-04-01T13:22:16.609Z,22.35
2019-04-01T13:24:43.330Z,22.50
2019-04-01T13:27:10.047Z,22.61
2019-04-01T13:29:36.643Z,22.71
2019-04-01T13:32:03.283Z,22.76
2019-04-01T13:34:29.965Z,22.88
2019-04-01T13:36:56.566Z,23.02
2019-04-01T13:39:23.151Z,23.21
2019-04-01T13:41:49.788Z,23.25
2019-04-01T13:44:16.397Z,23.28
2019-04-01T13:46:43.105Z,23.53
2019-04-01T13:49:09.720Z,23.46
2019-04-01T13:51:36.345Z,23.59
2019-04-01T13:54:09.076Z,23.55
2019-04-01T13:56:42.940Z,23.27
2019-04-01T13:59:17.589Z,23.06
2019-04-01T14:01:51.554Z,23.16
2019-04-01T14:04:18.271Z,23.06
2019-04-01T14:06:44.980Z,22.98
2019-04-01T14:09:11.597Z,23.27
2019-04-01T14:11:38.289Z,23.58
2019-04-01T14:14:04.910Z,23.69
2019-04-01T14:16:31.519Z,23.75
2019-04-01T14:18:58.123Z,23.87
2019-04-01T14:21:24.742Z,23.96
2019-04-01T14:23:51.365Z,23.99
2019-04-01T14:26:18.098Z,23.92
2019-04-01T14:28:44.807Z,23.77
2019-04-01T14:31:11.405Z,23.51
2019-04-01T14:33:38.040Z,23.40
2019-04-01T14:36:04.908Z,23.22
2019-04-01T14:38:39.211Z,23.08
2019-04-01T14:41:05.902Z,23.08
2019-04-01T14:43:32.519Z,22.97
2019-04-01T14:48:39.352Z,22.95
2019-04-01T14:51:06.097Z,23.04
2019-04-01T14:53:32.725Z,22.96
2019-04-01T14:55:59.460Z,23.04
2019-04-01T14:58:26.159Z,23.12
2019-04-01T15:00:52.796Z,23.26
2019-04-01T15:03:19.432Z,23.20
2019-04-01T15:05:46.185Z,23.18
2019-04-01T15:08:12.861Z,23.11
2019-04-01T15:10:41.144Z,22.92
2019-04-01T15:13:14.146Z,23.04
2019-04-01T15:15:40.785Z,23.26
2019-04-01T15:18:09.859Z,23.35
2019-04-01T15:20:41.949Z,23.30
2019-04-01T15:23:08.647Z,23.41
2019-04-01T15:25:35.265Z,23.26
2019-04-01T15:28:02.463Z,23.40
2019-04-01T15:30:31.975Z,23.57
2019-04-01T15:32:58.076Z,23.46
2019-04-01T15:35:24.708Z,23.26
2019-04-01T15:37:52.128Z,23.06
2019-04-01T15:40:19.151Z,22.88
2019-04-01T15:42:45.771Z,22.66
2019-04-01T15:45:12.381Z,22.41
2019-04-01T15:47:39.160Z,22.31
2019-04-01T15:50:06.186Z,22.44
2019-04-01T15:52:33.729Z,22.33
2019-04-01T15:55:02.485Z,22.23
2019-04-01T15:57:29.357Z,22.21
2019-04-01T15:59:55.997Z,22.14
2019-04-01T16:02:22.719Z,21.95
2019-04-01T16:04:49.345Z,21.68
2019-04-01T16:07:16.061Z,21.76
2019-04-01T16:09:42.759Z,21.70
2019-04-01T16:12:09.381Z,21.62
2019-04-01T16:14:35.999Z,21.65
2019-04-01T16:17:02.739Z,21.51
2019-04-01T16:19:29.463Z,21.21
2019-04-01T16:21:56.189Z,21.07
2019-04-01T16:24:22.897Z,21.00
2019-04-01T16:26:49.598Z,21.09
2019-04-01T16:29:16.213Z,21.16
2019-04-01T16:31:42.853Z,21.00
2019-04-01T16:34:09.569Z,20.80
2019-04-01T16:36:36.280Z,20.56
2019-04-01T16:39:05.138Z,20.16
2019-04-01T16:41:31.871Z,19.78
2019-04-01T16:43:58.623Z,19.33
2019-04-01T16:46:25.348Z,18.96
2019-04-01T16:48:52.080Z,18.60
2019-04-01T16:51:18.802Z,18.33
2019-04-01T16:53:45.511Z,18.06
2019-04-01T16:56:12.132Z,17.71
2019-04-01T16:58:38.846Z,17.35
2019-04-01T17:01:05.455Z,17.01
2019-04-01T17:03:32.172Z,16.71
2019-04-01T17:05:58.776Z,16.45
2019-04-01T17:08:25.398Z,16.28
2019-04-01T17:10:51.996Z,16.11
2019-04-01T17:13:18.622Z,15.91
2019-04-01T17:15:45.229Z,15.76
2019-04-01T17:18:11.867Z,15.56
2019-04-01T17:20:38.582Z,15.39
2019-04-01T17:23:05.224Z,15.25
2019-04-01T17:25:31.845Z,15.05
2019-04-01T17:27:58.451Z,14.91
2019-04-01T17:30:25.092Z,14.76
2019-04-01T17:32:51.826Z,14.60
2019-04-01T17:35:18.559Z,14.46
2019-04-01T17:37:45.307Z,14.38
2019-04-01T17:40:12.107Z,14.28
2019-04-01T17:42:39.410Z,14.23
2019-04-01T17:45:41.302Z,14.18
2019-04-01T17:48:07.942Z,14.08
2019-04-01T17:50:34.722Z,13.93
2019-04-01T17:53:01.381Z,13.83
2019-04-01T17:55:28.001Z,13.76
2019-04-01T17:57:54.735Z,13.66
2019-04-01T18:00:23.748Z,13.59
2019-04-01T18:02:50.413Z,13.50
2019-04-01T18:05:17.153Z,13.42
2019-04-01T18:07:43.884Z,13.29
2019-04-01T18:10:11.109Z,13.17
2019-04-01T18:12:37.850Z,13.07
2019-04-01T18:15:04.684Z,12.95
2019-04-01T18:17:31.415Z,12.84
2019-04-01T18:19:58.153Z,12.72
2019-04-01T18:22:24.994Z,12.60
2019-04-01T18:24:52.062Z,12.45
2019-04-01T18:27:18.797Z,12.30
2019-04-01T18:29:45.544Z,12.18
2019-04-01T18:32:12.266Z,12.00
2019-04-01T18:34:39.017Z,11.89
2019-04-01T18:37:05.663Z,11.82
2019-04-01T18:39:32.403Z,11.78
2019-04-01T18:41:59.141Z,11.80
2019-04-01T18:44:25.891Z,11.85
2019-04-01T18:46:53.034Z,11.90
2019-04-01T18:49:19.781Z,11.93
2019-04-01T18:51:46.541Z,11.90
2019-04-01T18:54:13.191Z,11.86
2019-04-01T18:56:39.826Z,11.77
2019-04-01T18:59:06.557Z,11.67
2019-04-01T19:01:33.200Z,11.60
2019-04-01T19:03:59.826Z,11.52
2019-04-01T19:06:26.513Z,11.49
2019-04-01T19:08:53.251Z,11.40
2019-04-01T19:11:19.973Z,11.29
2019-04-01T19:13:46.675Z,11.19
2019-04-01T19:16:16.298Z,11.09
2019-04-01T19:18:42.068Z,11.02
2019-04-01T19:21:09.220Z,10.97
2019-04-01T19:23:35.934Z,10.92
2019-04-01T19:26:02.671Z,10.84
2019-04-01T19:28:29.408Z,10.76
2019-04-01T19:30:56.116Z,10.70
2019-04-01T19:33:22.937Z,10.70
2019-04-01T19:35:49.675Z,10.69
2019-04-01T19:38:16.332Z,10.68
2019-04-01T19:40:43.056Z,10.66
2019-04-01T19:43:09.762Z,10.65
2019-04-01T19:45:36.528Z,10.61
2019-04-01T19:48:03.426Z,10.59
2019-04-01T19:50:31.127Z,10.54
2019-04-01T19:52:58.091Z,10.51
2019-04-01T19:55:24.826Z,10.49
2019-04-01T19:57:51.548Z,10.43
2019-04-01T20:00:27.640Z,10.36
2019-04-01T20:02:46.844Z,10.33
2019-04-01T20:05:13.585Z,10.30
2019-04-01T20:07:40.207Z,10.26
2019-04-01T20:10:06.913Z,10.20
2019-04-01T20:12:33.668Z,10.16
2019-04-01T20:15:00.438Z,10.14
2019-04-01T20:17:27.162Z,10.12
2019-04-01T20:19:53.956Z,10.06
2019-04-01T20:22:20.671Z,10.04
2019-04-01T20:24:47.988Z,9.99
2019-04-01T20:27:15.274Z,9.94
2019-04-01T20:29:42.257Z,9.91
2019-04-01T20:32:17.071Z,9.88
2019-04-01T20:34:37.413Z,9.85
2019-04-01T20:37:04.018Z,9.80
2019-04-01T20:39:30.724Z,9.76
2019-04-01T20:41:57.444Z,9.71
2019-04-01T20:44:24.149Z,9.66
2019-04-01T20:46:50.850Z,9.60
2019-04-01T20:49:17.487Z,9.56
2019-04-01T20:51:44.183Z,9.53
2019-04-01T20:54:10.914Z,9.49
2019-04-01T20:56:37.529Z,9.45
2019-04-01T20:59:04.198Z,9.41
2019-04-01T21:01:30.929Z,9.36
2019-04-01T21:03:58.803Z,9.32
2019-04-01T21:06:25.661Z,9.29
2019-04-01T21:08:52.269Z,9.26
2019-04-01T21:11:18.903Z,9.23
2019-04-01T21:13:45.622Z,9.19
2019-04-01T21:16:12.215Z,9.15
2019-04-01T21:18:38.828Z,9.09
2019-04-01T21:21:05.434Z,9.05
2019-04-01T21:23:32.046Z,9.01
2019-04-01T21:25:58.978Z,8.97
2019-04-01T21:28:25.907Z,8.95
2019-04-01T21:30:52.596Z,8.90
2019-04-01T21:33:19.228Z,8.90
2019-04-01T21:35:45.846Z,8.86
2019-04-01T21:38:12.574Z,8.86
2019-04-01T21:40:39.289Z,8.79
2019-04-01T21:43:05.907Z,8.74
2019-04-01T21:45:32.618Z,8.71
2019-04-01T21:47:59.361Z,8.67
2019-04-01T21:50:25.996Z,8.62
2019-04-01T21:52:52.622Z,8.57
2019-04-01T21:55:20.320Z,8.53
2019-04-01T21:57:46.928Z,8.48
2019-04-01T22:00:18.102Z,8.44
2019-04-01T22:02:44.868Z,8.43
2019-04-01T22:05:11.482Z,8.42
2019-04-01T22:07:38.323Z,8.37
2019-04-01T22:10:05.793Z,8.36
2019-04-01T22:12:32.409Z,8.33
2019-04-01T22:14:59.024Z,8.32
2019-04-01T22:17:25.630Z,8.29
2019-04-01T22:19:52.250Z,8.25
2019-04-01T22:22:18.960Z,8.21
2019-04-01T22:24:45.642Z,8.16
2019-04-01T22:27:12.350Z,8.15
2019-04-01T22:29:38.953Z,8.08
2019-04-01T22:32:05.567Z,8.08
2019-04-01T22:34:32.259Z,8.07
2019-04-01T22:36:58.971Z,8.02
2019-04-01T22:39:27.295Z,7.96
2019-04-01T22:41:54.187Z,7.91
2019-04-01T22:44:20.789Z,7.86
2019-04-01T22:46:47.952Z,7.82
2019-04-01T22:49:14.827Z,7.81
2019-04-01T22:51:41.431Z,7.77
2019-04-01T22:54:08.115Z,7.74
2019-04-01T22:56:34.729Z,7.70
2019-04-01T22:59:01.435Z,7.68
2019-04-01T23:01:28.055Z,7.68
2019-04-01T23:03:54.650Z,7.68
2019-04-01T23:06:21.287Z,7.67
2019-04-01T23:08:47.993Z,7.61
2019-04-01T23:11:14.619Z,7.53
2019-04-01T23:13:41.305Z,7.46
2019-04-01T23:16:07.929Z,7.37
2019-04-01T23:18:35.287Z,7.31
2019-04-01T23:21:02.945Z,7.26
2019-04-01T23:23:29.654Z,7.21
2019-04-01T23:25:57.206Z,7.17
2019-04-01T23:28:24.209Z,7.17
2019-04-01T23:30:50.928Z,7.17
2019-04-01T23:33:17.652Z,7.13
2019-04-01T23:35:44.358Z,7.13
2019-04-01T23:38:11.102Z,7.12
2019-04-01T23:40:37.693Z,7.09
2019-04-01T23:43:04.295Z,7.10
2019-04-01T23:45:30.915Z,7.10
2019-04-01T23:47:57.551Z,7.06
2019-04-01T23:50:24.143Z,6.95
2019-04-01T23:52:50.760Z,6.86
2019-04-01T23:55:20.571Z,6.78
2019-04-01T23:57:47.224Z,6.70
